createdAt,value
2023-01-17T00:00:03.695Z,95.65
2023-01-17T00:01:03.602Z,94.92
2023-01-17T00:02:03.584Z,95.65
2023-01-17T00:03:03.608Z,94.71
2023-01-17T00:04:03.604Z,94.55
2023-01-17T00:05:03.549Z,94.51
2023-01-17T00:06:03.549Z,94.45
2023-01-17T00:07:03.560Z,94.65
2023-01-17T00:08:03.531Z,94.24
2023-01-17T00:09:03.550Z,94.34
2023-01-17T00:10:03.509Z,94.96
2023-01-17T00:11:03.500Z,94.76
2023-01-17T00:12:03.495Z,94.45
2023-01-17T00:13:03.523Z,94.65
2023-01-17T00:14:03.499Z,94.45
2023-01-17T00:15:03.464Z,94.86
2023-01-17T00:16:03.462Z,94.65
2023-01-17T00:17:03.456Z,94.45
2023-01-17T00:18:03.442Z,94.76
2023-01-17T00:19:03.442Z,94.55
2023-01-17T00:20:03.430Z,94.96
2023-01-17T00:21:03.416Z,94.45
2023-01-17T00:22:03.402Z,94.76
2023-01-17T00:23:03.396Z,94.24
2023-01-17T00:24:03.395Z,94.70
2023-01-17T00:25:03.380Z,94.80
2023-01-17T00:26:03.386Z,94.38
2023-01-17T00:27:03.365Z,94.76
2023-01-17T00:28:03.360Z,95.07
2023-01-17T00:29:03.360Z,94.96
2023-01-17T00:30:03.338Z,95.07
2023-01-17T00:31:03.373Z,94.96
2023-01-17T00:32:03.371Z,94.96
2023-01-17T00:33:03.304Z,94.55
2023-01-17T00:34:03.308Z,95.28
2023-01-17T00:35:03.286Z,94.86
2023-01-17T00:36:03.287Z,95.59
2023-01-17T00:37:03.270Z,95.69
2023-01-17T00:38:03.274Z,95.63
2023-01-17T00:39:03.261Z,95.17
2023-01-17T00:40:03.237Z,95.63
2023-01-17T00:41:03.263Z,95.63
2023-01-17T00:42:03.226Z,95.69
2023-01-17T00:43:03.217Z,95.21
2023-01-17T00:44:03.218Z,95.79
2023-01-17T00:45:03.223Z,95.48
2023-01-17T00:46:03.212Z,95.53
2023-01-17T00:47:03.179Z,95.42
2023-01-17T00:48:03.173Z,95.63
2023-01-17T00:49:03.185Z,95.11
2023-01-17T00:50:03.154Z,95.42
2023-01-17T00:51:03.182Z,95.63
2023-01-17T00:52:03.141Z,95.94
2023-01-17T00:53:03.125Z,96.15
2023-01-17T00:54:03.125Z,96.47
2023-01-17T00:55:03.100Z,96.78
2023-01-17T00:56:03.095Z,96.72
2023-01-17T00:57:03.084Z,96.98
2023-01-17T00:58:03.072Z,96.78
2023-01-17T00:59:03.092Z,96.15
2023-01-17T01:00:03.053Z,96.78
2023-01-17T01:01:03.141Z,96.78
2023-01-17T01:02:03.112Z,96.67
2023-01-17T01:03:03.030Z,96.57
2023-01-17T01:04:03.031Z,96.11
2023-01-17T01:05:03.017Z,96.57
2023-01-17T01:06:03.004Z,96.62
2023-01-17T01:07:02.989Z,96.52
2023-01-17T01:08:02.986Z,96.73
2023-01-17T01:09:03.014Z,96.78
2023-01-17T01:10:02.970Z,96.67
2023-01-17T01:11:02.955Z,96.67
2023-01-17T01:12:02.951Z,96.31
2023-01-17T01:13:02.937Z,96.57
2023-01-17T01:14:03.054Z,97.50
2023-01-17T01:15:02.913Z,97.61
2023-01-17T01:16:02.945Z,96.88
2023-01-17T01:17:02.906Z,96.98
2023-01-17T01:18:02.896Z,97.30
2023-01-17T01:19:02.894Z,97.50
2023-01-17T01:20:02.882Z,97.50
2023-01-17T01:21:02.873Z,97.40
2023-01-17T01:22:02.857Z,97.61
2023-01-17T01:23:02.846Z,96.98
2023-01-17T01:24:02.843Z,97.09
2023-01-17T01:25:02.840Z,97.09
2023-01-17T01:26:02.828Z,97.09
2023-01-17T01:27:02.809Z,96.36
2023-01-17T01:28:02.802Z,96.78
2023-01-17T01:29:02.804Z,96.88
2023-01-17T01:30:02.790Z,97.50
2023-01-17T01:31:02.774Z,96.98
2023-01-17T01:32:02.766Z,96.57
2023-01-17T01:33:02.756Z,96.47
2023-01-17T01:34:02.764Z,95.73
2023-01-17T01:35:02.742Z,95.57
2023-01-17T01:36:02.732Z,95.99
2023-01-17T01:37:02.724Z,96.30
2023-01-17T01:38:02.709Z,96.41
2023-01-17T01:39:02.712Z,96.41
2023-01-17T01:40:02.698Z,96.30
2023-01-17T01:41:02.685Z,96.30
2023-01-17T01:42:02.673Z,96.09
2023-01-17T01:43:02.661Z,96.20
2023-01-17T01:44:02.675Z,95.89
2023-01-17T01:45:02.645Z,95.63
2023-01-17T01:46:02.712Z,95.89
2023-01-17T01:47:02.623Z,95.47
2023-01-17T01:48:02.615Z,95.21
2023-01-17T01:49:02.620Z,95.53
2023-01-17T01:50:02.601Z,95.63
2023-01-17T01:51:02.590Z,95.21
2023-01-17T01:52:02.588Z,95.11
2023-01-17T01:53:02.584Z,94.18
2023-01-17T01:54:02.575Z,94.70
2023-01-17T01:55:02.551Z,94.80
2023-01-17T01:56:02.542Z,94.38
2023-01-17T01:57:02.539Z,94.28
2023-01-17T01:58:02.521Z,94.70
2023-01-17T01:59:02.536Z,93.97
2023-01-17T02:00:02.507Z,94.34
2023-01-17T02:01:02.580Z,94.59
2023-01-17T02:02:02.487Z,94.28
2023-01-17T02:03:02.478Z,93.66
2023-01-17T02:04:02.512Z,93.41
2023-01-17T02:05:04.598Z,93.72
2023-01-17T02:06:03.458Z,92.99
2023-01-17T02:07:02.440Z,92.61
2023-01-17T02:08:02.431Z,92.78
2023-01-17T02:09:02.423Z,92.72
2023-01-17T02:10:02.422Z,92.57
2023-01-17T02:11:02.406Z,92.99
2023-01-17T02:12:02.400Z,92.51
2023-01-17T02:13:02.383Z,92.47
2023-01-17T02:14:02.385Z,92.68
2023-01-17T02:15:02.393Z,92.68
2023-01-17T02:16:02.448Z,92.57
2023-01-17T02:17:02.354Z,92.47
2023-01-17T02:18:02.337Z,92.36
2023-01-17T02:19:02.347Z,92.36
2023-01-17T02:20:02.335Z,92.26
2023-01-17T02:21:02.309Z,91.74
2023-01-17T02:22:02.304Z,92.05
2023-01-17T02:23:02.303Z,91.95
2023-01-17T02:24:02.294Z,91.85
2023-01-17T02:25:02.292Z,91.33
2023-01-17T02:26:02.275Z,91.74
2023-01-17T02:27:02.262Z,92.05
2023-01-17T02:28:02.252Z,92.16
2023-01-17T02:29:02.241Z,91.95
2023-01-17T02:30:02.297Z,92.10
2023-01-17T02:31:02.223Z,92.05
2023-01-17T02:32:02.214Z,91.95
2023-01-17T02:33:02.211Z,92.05
2023-01-17T02:34:02.199Z,91.89
2023-01-17T02:35:02.204Z,92.57
2023-01-17T02:36:02.183Z,92.16
2023-01-17T02:37:02.164Z,92.16
2023-01-17T02:38:02.160Z,92.26
2023-01-17T02:39:02.151Z,91.99
2023-01-17T02:40:02.154Z,91.33
2023-01-17T02:41:02.126Z,91.99
2023-01-17T02:42:02.112Z,91.58
2023-01-17T02:43:02.105Z,91.95
2023-01-17T02:44:02.119Z,91.58
2023-01-17T02:45:02.111Z,91.47
2023-01-17T02:46:02.144Z,92.10
2023-01-17T02:47:02.073Z,92.20
2023-01-17T02:48:02.091Z,91.99
2023-01-17T02:49:02.059Z,92.93
2023-01-17T02:50:02.072Z,92.41
2023-01-17T02:51:02.037Z,92.41
2023-01-17T02:52:02.032Z,92.41
2023-01-17T02:53:02.022Z,92.10
2023-01-17T02:54:02.011Z,92.20
2023-01-17T02:55:02.049Z,91.68
2023-01-17T02:56:02.015Z,92.20
2023-01-17T02:57:01.987Z,91.89
2023-01-17T02:58:01.987Z,91.78
2023-01-17T02:59:01.969Z,92.41
2023-01-17T03:00:01.970Z,92.10
2023-01-17T03:01:02.101Z,92.30
2023-01-17T03:02:02.090Z,92.20
2023-01-17T03:03:01.927Z,92.10
2023-01-17T03:04:01.924Z,91.99
2023-01-17T03:05:01.925Z,91.99
2023-01-17T03:06:01.907Z,92.10
2023-01-17T03:07:01.900Z,91.99
2023-01-17T03:08:01.897Z,92.20
2023-01-17T03:09:01.871Z,91.78
2023-01-17T03:10:01.912Z,92.20
2023-01-17T03:11:01.856Z,91.93
2023-01-17T03:12:01.849Z,92.03
2023-01-17T03:13:01.839Z,92.35
2023-01-17T03:14:01.832Z,92.35
2023-01-17T03:15:01.849Z,91.89
2023-01-17T03:16:01.818Z,92.10
2023-01-17T03:17:01.819Z,91.37
2023-01-17T03:18:01.802Z,91.31
2023-01-17T03:19:01.785Z,92.10
2023-01-17T03:20:01.793Z,91.52
2023-01-17T03:21:01.770Z,91.47
2023-01-17T03:22:01.759Z,91.47
2023-01-17T03:23:01.762Z,91.20
2023-01-17T03:24:01.741Z,91.20
2023-01-17T03:25:01.746Z,91.41
2023-01-17T03:26:01.722Z,91.83
2023-01-17T03:27:01.717Z,91.52
2023-01-17T03:28:01.702Z,91.52
2023-01-17T03:29:01.689Z,91.47
2023-01-17T03:30:01.718Z,91.68
2023-01-17T03:31:01.683Z,91.52
2023-01-17T03:32:01.662Z,90.75
2023-01-17T03:33:01.659Z,91.00
2023-01-17T03:34:01.663Z,90.16
2023-01-17T03:35:01.656Z,90.26
2023-01-17T03:36:01.633Z,90.16
2023-01-17T03:37:01.626Z,90.33
2023-01-17T03:38:01.611Z,90.79
2023-01-17T03:39:01.618Z,90.75
2023-01-17T03:40:01.604Z,90.58
2023-01-17T03:41:01.588Z,90.79
2023-01-17T03:42:01.579Z,91.10
2023-01-17T03:43:01.565Z,91.58
2023-01-17T03:44:01.556Z,91.58
2023-01-17T03:45:01.562Z,91.06
2023-01-17T03:46:01.588Z,90.26
2023-01-17T03:47:01.547Z,90.26
2023-01-17T03:48:01.557Z,90.44
2023-01-17T03:49:01.541Z,90.33
2023-01-17T03:50:01.541Z,90.64
2023-01-17T03:51:01.536Z,90.47
2023-01-17T03:52:01.484Z,90.85
2023-01-17T03:53:01.481Z,90.79
2023-01-17T03:54:01.473Z,90.95
2023-01-17T03:55:01.466Z,90.64
2023-01-17T03:56:01.451Z,91.37
2023-01-17T03:57:01.440Z,90.23
2023-01-17T03:58:01.430Z,90.64
2023-01-17T03:59:01.416Z,91.37
2023-01-17T04:00:01.454Z,90.79
2023-01-17T04:01:01.450Z,90.85
2023-01-17T04:02:01.558Z,90.23
2023-01-17T04:03:01.390Z,90.54
2023-01-17T04:04:01.374Z,90.26
2023-01-17T04:05:01.374Z,90.89
2023-01-17T04:06:01.356Z,91.78
2023-01-17T04:07:01.352Z,91.83
2023-01-17T04:08:01.354Z,91.72
2023-01-17T04:09:01.338Z,91.62
2023-01-17T04:10:01.334Z,91.31
2023-01-17T04:11:01.331Z,91.83
2023-01-17T04:12:01.302Z,91.52
2023-01-17T04:13:01.294Z,91.31
2023-01-17T04:14:01.283Z,91.62
2023-01-17T04:15:01.278Z,91.52
2023-01-17T04:16:01.263Z,92.14
2023-01-17T04:17:01.254Z,91.31
2023-01-17T04:18:01.259Z,91.72
2023-01-17T04:19:01.240Z,92.03
2023-01-17T04:20:01.235Z,91.56
2023-01-17T04:21:01.217Z,91.52
2023-01-17T04:22:01.207Z,91.93
2023-01-17T04:23:01.201Z,91.52
2023-01-17T04:24:01.199Z,91.52
2023-01-17T04:25:01.188Z,91.62
2023-01-17T04:26:01.207Z,92.03
2023-01-17T04:27:01.165Z,91.83
2023-01-17T04:28:01.162Z,92.14
2023-01-17T04:29:01.155Z,92.14
2023-01-17T04:30:01.151Z,92.03
2023-01-17T04:31:01.182Z,92.14
2023-01-17T04:32:01.124Z,92.14
2023-01-17T04:33:01.131Z,92.03
2023-01-17T04:34:01.110Z,92.03
2023-01-17T04:35:01.106Z,92.29
2023-01-17T04:36:01.093Z,92.08
2023-01-17T04:37:01.077Z,92.60
2023-01-17T04:38:01.077Z,92.55
2023-01-17T04:39:01.057Z,92.49
2023-01-17T04:40:01.063Z,92.60
2023-01-17T04:41:01.047Z,92.29
2023-01-17T04:42:01.752Z,92.35
2023-01-17T04:43:01.022Z,92.49
2023-01-17T04:44:01.012Z,92.14
2023-01-17T04:45:01.014Z,92.49
2023-01-17T04:46:01.028Z,91.77
2023-01-17T04:47:01.054Z,92.18
2023-01-17T04:48:00.978Z,91.87
2023-01-17T04:49:00.978Z,92.08
2023-01-17T04:50:00.984Z,91.56
2023-01-17T04:51:00.949Z,90.62
2023-01-17T04:52:00.943Z,90.66
2023-01-17T04:53:00.927Z,90.72
2023-01-17T04:54:01.957Z,89.89
2023-01-17T04:55:00.941Z,89.79
2023-01-17T04:56:00.925Z,89.48
2023-01-17T04:57:00.902Z,90.10
2023-01-17T04:58:00.893Z,89.73
2023-01-17T04:59:00.883Z,89.89
2023-01-17T05:00:00.882Z,90.10
2023-01-17T05:01:32.875Z,89.17
2023-01-17T05:02:00.891Z,89.69
2023-01-17T05:03:00.949Z,89.06
2023-01-17T05:04:00.847Z,90.10
2023-01-17T05:05:00.831Z,88.48
2023-01-17T05:06:00.831Z,88.43
2023-01-17T05:07:00.814Z,88.12
2023-01-17T05:08:00.806Z,87.96
2023-01-17T05:09:00.807Z,87.96
2023-01-17T05:10:00.782Z,88.17
2023-01-17T05:11:00.794Z,88.58
2023-01-17T05:12:00.769Z,88.37
2023-01-17T05:13:00.762Z,88.79
2023-01-17T05:14:00.749Z,88.62
2023-01-17T05:15:00.738Z,88.37
2023-01-17T05:16:00.792Z,87.75
2023-01-17T05:17:00.742Z,88.37
2023-01-17T05:18:00.720Z,88.17
2023-01-17T05:19:00.705Z,88.06
2023-01-17T05:20:00.709Z,88.02
2023-01-17T05:21:00.704Z,88.20
2023-01-17T05:22:00.683Z,87.79
2023-01-17T05:23:00.672Z,87.54
2023-01-17T05:24:00.662Z,87.68
2023-01-17T05:25:00.662Z,87.68
2023-01-17T05:26:00.667Z,87.33
2023-01-17T05:27:00.639Z,87.65
2023-01-17T05:28:00.628Z,87.68
2023-01-17T05:29:00.664Z,87.85
2023-01-17T05:30:00.623Z,87.96
2023-01-17T05:31:00.638Z,87.85
2023-01-17T05:32:00.602Z,87.75
2023-01-17T05:33:00.601Z,87.27
2023-01-17T05:34:00.582Z,86.29
2023-01-17T05:35:00.574Z,86.50
2023-01-17T05:36:00.576Z,87.12
2023-01-17T05:37:00.559Z,86.91
2023-01-17T05:38:00.545Z,86.60
2023-01-17T05:39:00.540Z,86.81
2023-01-17T05:40:00.536Z,86.50
2023-01-17T05:41:00.552Z,86.71
2023-01-17T05:42:00.517Z,86.50
2023-01-17T05:43:00.506Z,86.77
2023-01-17T05:44:00.517Z,86.77
2023-01-17T05:45:00.484Z,87.02
2023-01-17T05:46:00.522Z,86.88
2023-01-17T05:47:00.475Z,86.88
2023-01-17T05:48:00.484Z,86.77
2023-01-17T05:49:00.462Z,87.75
2023-01-17T05:50:00.498Z,87.60
2023-01-17T05:51:00.475Z,87.81
2023-01-17T05:52:00.429Z,88.75
2023-01-17T05:53:00.426Z,89.48
2023-01-17T05:54:00.411Z,89.48
2023-01-17T05:55:00.416Z,90.25
2023-01-17T05:56:00.421Z,91.39
2023-01-17T05:57:00.382Z,92.22
2023-01-17T05:58:00.381Z,92.89
2023-01-17T05:59:00.388Z,93.93
2023-01-17T06:00:00.379Z,94.18
2023-01-17T06:01:00.411Z,94.14
2023-01-17T06:02:00.343Z,95.23
2023-01-17T06:03:00.399Z,95.02
2023-01-17T06:04:00.323Z,94.92
2023-01-17T06:05:03.159Z,95.75
2023-01-17T06:06:00.331Z,95.08
2023-01-17T06:07:00.299Z,95.33
2023-01-17T06:08:00.304Z,95.95
2023-01-17T06:09:00.303Z,95.43
2023-01-17T06:10:00.273Z,95.43
2023-01-17T06:11:00.274Z,95.89
2023-01-17T06:12:00.257Z,96.52
2023-01-17T06:13:00.250Z,96.21
2023-01-17T06:14:00.242Z,95.89
2023-01-17T06:15:00.230Z,97.04
2023-01-17T06:16:00.286Z,97.19
2023-01-17T06:17:00.210Z,97.09
2023-01-17T06:18:00.210Z,97.61
2023-01-17T06:19:00.195Z,97.67
2023-01-17T06:20:00.188Z,97.35
2023-01-17T06:21:00.206Z,97.56
2023-01-17T06:22:00.231Z,97.56
2023-01-17T06:23:00.163Z,97.56
2023-01-17T06:24:00.553Z,97.46
2023-01-17T06:25:00.159Z,96.62
2023-01-17T06:26:00.149Z,97.25
2023-01-17T06:27:00.136Z,96.89
2023-01-17T06:28:00.123Z,97.20
2023-01-17T06:29:00.110Z,96.58
2023-01-17T06:30:00.132Z,96.89
2023-01-17T06:31:00.154Z,96.79
2023-01-17T06:32:01.665Z,96.26
2023-01-17T06:33:01.127Z,96.37
2023-01-17T06:34:00.101Z,95.18
2023-01-17T06:35:00.060Z,95.81
2023-01-17T06:36:00.065Z,95.60
2023-01-17T06:37:00.043Z,96.12
2023-01-17T06:38:00.045Z,95.56
2023-01-17T06:39:00.037Z,95.29
2023-01-17T06:40:00.025Z,95.76
2023-01-17T06:41:00.017Z,95.25
2023-01-17T06:41:59.993Z,94.93
2023-01-17T06:43:00.000Z,94.51
2023-01-17T06:43:59.979Z,94.62
2023-01-17T06:44:59.972Z,94.72
2023-01-17T06:45:59.970Z,94.62
2023-01-17T06:46:59.971Z,94.82
2023-01-17T06:47:59.948Z,94.62
2023-01-17T06:48:59.944Z,94.62
2023-01-17T06:49:59.928Z,93.99
2023-01-17T06:50:59.936Z,94.41
2023-01-17T06:51:59.944Z,93.68
2023-01-17T06:52:59.911Z,93.83
2023-01-17T06:53:59.889Z,94.20
2023-01-17T06:54:59.882Z,94.35
2023-01-17T06:55:59.881Z,94.76
2023-01-17T06:56:59.864Z,94.66
2023-01-17T06:57:59.867Z,94.18
2023-01-17T06:58:59.855Z,94.24
2023-01-17T06:59:59.839Z,94.29
2023-01-17T07:00:59.945Z,95.02
2023-01-17T07:01:59.823Z,94.08
2023-01-17T07:02:59.810Z,94.81
2023-01-17T07:03:59.801Z,94.70
2023-01-17T07:05:00.808Z,94.24
2023-01-17T07:05:59.793Z,94.24
2023-01-17T07:06:59.776Z,94.70
2023-01-17T07:07:59.763Z,94.04
2023-01-17T07:08:59.752Z,94.35
2023-01-17T07:09:59.750Z,94.41
2023-01-17T07:11:00.746Z,94.20
2023-01-17T07:11:59.730Z,93.99
2023-01-17T07:12:59.738Z,94.10
2023-01-17T07:13:59.714Z,93.68
2023-01-17T07:14:59.701Z,93.58
2023-01-17T07:15:59.718Z,92.79
2023-01-17T07:16:59.686Z,93.27
2023-01-17T07:17:59.675Z,93.27
2023-01-17T07:18:59.664Z,92.64
2023-01-17T07:19:59.666Z,92.54
2023-01-17T07:20:59.664Z,92.64
2023-01-17T07:21:59.636Z,92.54
2023-01-17T07:22:59.626Z,92.64
2023-01-17T07:23:59.618Z,92.37
2023-01-17T07:24:59.618Z,92.16
2023-01-17T07:25:59.644Z,92.37
2023-01-17T07:26:59.587Z,92.27
2023-01-17T07:27:59.586Z,92.12
2023-01-17T07:28:59.572Z,92.16
2023-01-17T07:29:59.566Z,92.22
2023-01-17T07:30:59.606Z,91.96
2023-01-17T07:31:59.548Z,91.96
2023-01-17T07:32:59.554Z,91.96
2023-01-17T07:33:59.541Z,92.12
2023-01-17T07:34:59.526Z,92.22
2023-01-17T07:35:59.517Z,92.12
2023-01-17T07:36:59.501Z,92.22
2023-01-17T07:37:59.494Z,91.71
2023-01-17T07:38:59.477Z,92.43
2023-01-17T07:39:59.476Z,92.22
2023-01-17T07:40:59.474Z,91.28
2023-01-17T07:41:59.492Z,91.64
2023-01-17T07:42:59.442Z,92.12
2023-01-17T07:43:59.443Z,92.12
2023-01-17T07:44:59.429Z,92.27
2023-01-17T07:46:01.351Z,92.22
2023-01-17T07:46:59.411Z,92.22
2023-01-17T07:47:59.406Z,92.16
2023-01-17T07:48:59.396Z,91.64
2023-01-17T07:49:59.381Z,91.64
2023-01-17T07:50:59.378Z,92.27
2023-01-17T07:51:59.425Z,92.06
2023-01-17T07:52:59.362Z,92.47
2023-01-17T07:53:59.350Z,91.75
2023-01-17T07:54:59.348Z,92.43
2023-01-17T07:55:59.334Z,92.12
2023-01-17T07:56:59.336Z,91.50
2023-01-17T07:58:00.775Z,91.39
2023-01-17T07:58:59.317Z,91.53
2023-01-17T07:59:59.296Z,91.71
2023-01-17T08:00:59.411Z,91.91
2023-01-17T08:01:59.385Z,91.81
2023-01-17T08:03:00.275Z,91.91
2023-01-17T08:03:59.335Z,91.91
2023-01-17T08:04:59.255Z,92.22
2023-01-17T08:05:59.243Z,91.97
2023-01-17T08:06:59.249Z,91.91
2023-01-17T08:07:59.225Z,91.81
2023-01-17T08:08:59.246Z,91.50
2023-01-17T08:09:59.216Z,91.71
2023-01-17T08:10:59.199Z,91.50
2023-01-17T08:11:59.213Z,91.81
2023-01-17T08:12:59.189Z,91.28
2023-01-17T08:13:59.184Z,91.56
2023-01-17T08:14:59.189Z,91.66
2023-01-17T08:15:59.160Z,91.14
2023-01-17T08:16:59.157Z,91.04
2023-01-17T08:17:59.143Z,90.62
2023-01-17T08:18:59.138Z,90.52
2023-01-17T08:19:59.133Z,90.31
2023-01-17T08:20:59.117Z,90.83
2023-01-17T08:21:59.121Z,91.04
2023-01-17T08:22:59.098Z,90.26
2023-01-17T08:23:59.090Z,90.00
2023-01-17T08:24:59.119Z,89.37
2023-01-17T08:25:59.069Z,90.10
2023-01-17T08:26:59.078Z,90.20
2023-01-17T08:27:59.083Z,89.79
2023-01-17T08:29:00.057Z,90.00
2023-01-17T08:29:59.032Z,89.85
2023-01-17T08:30:59.035Z,90.20
2023-01-17T08:31:59.032Z,89.79
2023-01-17T08:32:59.012Z,89.69
2023-01-17T08:33:59.017Z,90.41
2023-01-17T08:34:58.990Z,90.87
2023-01-17T08:35:58.980Z,90.87
2023-01-17T08:36:58.982Z,90.66
2023-01-17T08:37:58.967Z,91.91
2023-01-17T08:38:58.986Z,91.71
2023-01-17T08:39:58.946Z,91.25
2023-01-17T08:40:58.937Z,91.46
2023-01-17T08:41:58.948Z,91.25
2023-01-17T08:42:58.922Z,91.77
2023-01-17T08:43:58.916Z,91.77
2023-01-17T08:44:58.906Z,90.72
2023-01-17T08:45:58.924Z,91.35
2023-01-17T08:46:58.915Z,90.72
2023-01-17T08:47:58.876Z,90.20
2023-01-17T08:48:58.863Z,90.41
2023-01-17T08:49:58.910Z,90.52
2023-01-17T08:50:58.853Z,90.41
2023-01-17T08:51:58.854Z,90.41
2023-01-17T08:53:00.966Z,90.52
2023-01-17T08:53:58.817Z,90.83
2023-01-17T08:54:58.807Z,90.62
2023-01-17T08:55:58.808Z,90.72
2023-01-17T08:56:58.800Z,90.72
2023-01-17T08:57:58.782Z,90.41
2023-01-17T08:58:58.775Z,90.52
2023-01-17T08:59:58.780Z,90.41
2023-01-17T09:00:58.859Z,90.41
2023-01-17T09:01:58.906Z,90.16
2023-01-17T09:02:58.740Z,90.37
2023-01-17T09:03:58.781Z,90.31
2023-01-17T09:04:58.733Z,90.31
2023-01-17T09:05:58.721Z,90.10
2023-01-17T09:06:58.725Z,90.58
2023-01-17T09:07:58.711Z,90.52
2023-01-17T09:08:58.694Z,90.52
2023-01-17T09:09:58.684Z,90.37
2023-01-17T09:10:58.684Z,90.16
2023-01-17T09:11:58.702Z,89.64
2023-01-17T09:12:58.659Z,89.85
2023-01-17T09:13:58.647Z,90.20
2023-01-17T09:14:58.645Z,90.47
2023-01-17T09:15:58.628Z,90.58
2023-01-17T09:16:58.677Z,89.85
2023-01-17T09:17:58.621Z,89.60
2023-01-17T09:18:58.621Z,89.54
2023-01-17T09:19:58.615Z,89.85
2023-01-17T09:20:58.590Z,89.54
2023-01-17T09:21:58.634Z,90.16
2023-01-17T09:22:58.578Z,89.92
2023-01-17T09:23:58.574Z,89.81
2023-01-17T09:24:58.567Z,90.02
2023-01-17T09:25:58.560Z,89.81
2023-01-17T09:26:58.555Z,89.70
2023-01-17T09:27:58.538Z,89.70
2023-01-17T09:28:58.535Z,89.60
2023-01-17T09:29:58.519Z,89.70
2023-01-17T09:30:58.544Z,88.98
2023-01-17T09:31:58.546Z,89.29
2023-01-17T09:32:58.495Z,89.29
2023-01-17T09:33:58.487Z,88.73
2023-01-17T09:34:58.477Z,88.25
2023-01-17T09:35:58.468Z,88.67
2023-01-17T09:36:58.466Z,89.25
2023-01-17T09:37:58.446Z,88.48
2023-01-17T09:38:58.441Z,88.28
2023-01-17T09:39:58.429Z,87.17
2023-01-17T09:40:58.433Z,87.38
2023-01-17T09:41:58.424Z,87.59
2023-01-17T09:42:58.406Z,87.69
2023-01-17T09:43:58.405Z,86.44
2023-01-17T09:44:58.405Z,86.76
2023-01-17T09:45:58.446Z,86.49
2023-01-17T09:46:58.403Z,87.42
2023-01-17T09:47:58.364Z,87.01
2023-01-17T09:48:58.355Z,87.73
2023-01-17T09:49:58.344Z,87.69
2023-01-17T09:50:58.340Z,88.21
2023-01-17T09:51:58.339Z,88.52
2023-01-17T09:52:58.320Z,88.52
2023-01-17T09:53:58.341Z,88.73
2023-01-17T09:54:58.314Z,87.96
2023-01-17T09:55:58.336Z,87.79
2023-01-17T09:56:58.314Z,87.76
2023-01-17T09:57:58.281Z,88.10
2023-01-17T09:58:58.273Z,87.59
2023-01-17T10:00:03.267Z,87.38
2023-01-17T10:01:00.322Z,88.10
2023-01-17T10:01:58.407Z,87.79
2023-01-17T10:02:58.308Z,87.84
2023-01-17T10:03:58.285Z,87.52
2023-01-17T10:04:58.245Z,87.52
2023-01-17T10:05:58.220Z,87.32
2023-01-17T10:06:58.233Z,87.42
2023-01-17T10:07:58.190Z,87.32
2023-01-17T10:08:58.193Z,87.63
2023-01-17T10:09:58.182Z,87.94
2023-01-17T10:10:58.172Z,87.59
2023-01-17T10:11:58.171Z,87.42
2023-01-17T10:12:58.153Z,87.48
2023-01-17T10:13:58.240Z,87.69
2023-01-17T10:14:58.140Z,86.76
2023-01-17T10:16:00.037Z,85.55
2023-01-17T10:16:58.166Z,85.93
2023-01-17T10:17:58.118Z,85.72
2023-01-17T10:18:58.100Z,86.13
2023-01-17T10:19:58.091Z,85.83
2023-01-17T10:20:58.104Z,81.49
2023-01-17T10:21:58.094Z,75.35
2023-01-17T10:22:58.066Z,66.45
2023-01-17T10:23:58.052Z,63.66
2023-01-17T10:24:58.079Z,61.63
2023-01-17T10:25:58.040Z,58.65
2023-01-17T10:26:58.049Z,57.21
2023-01-17T10:27:59.054Z,54.08
2023-01-17T10:28:58.009Z,51.61
2023-01-17T10:29:57.997Z,51.59
2023-01-17T10:30:58.028Z,51.59
2023-01-17T10:31:57.985Z,50.90
2023-01-17T10:32:58.027Z,51.97
2023-01-17T10:33:57.960Z,52.88
2023-01-17T10:34:57.951Z,54.59
2023-01-17T10:35:57.956Z,57.48
2023-01-17T10:36:57.940Z,59.89
2023-01-17T10:37:57.918Z,60.67
2023-01-17T10:38:57.914Z,62.33
2023-01-17T10:39:57.904Z,64.54
2023-01-17T10:40:57.891Z,66.53
2023-01-17T10:41:57.982Z,68.07
2023-01-17T10:42:57.877Z,69.24
2023-01-17T10:43:57.860Z,70.20
2023-01-17T10:44:57.852Z,70.54
2023-01-17T10:45:57.870Z,72.53
2023-01-17T10:46:57.836Z,72.78
2023-01-17T10:47:57.839Z,73.94
2023-01-17T10:48:57.814Z,74.88
2023-01-17T10:49:57.808Z,75.53
2023-01-17T10:50:57.798Z,75.84
2023-01-17T10:51:57.793Z,75.15
2023-01-17T10:52:57.793Z,75.88
2023-01-17T10:53:57.782Z,75.98
2023-01-17T10:54:57.757Z,76.74
2023-01-17T10:55:57.751Z,76.43
2023-01-17T10:56:57.751Z,76.78
2023-01-17T10:57:57.747Z,77.15
2023-01-17T10:58:57.725Z,77.36
2023-01-17T10:59:57.743Z,75.84
2023-01-17T11:00:57.756Z,75.09
2023-01-17T11:01:57.743Z,75.40
2023-01-17T11:02:57.728Z,75.54
2023-01-17T11:03:57.670Z,76.57
2023-01-17T11:04:58.671Z,77.30
2023-01-17T11:05:57.663Z,76.92
2023-01-17T11:06:58.483Z,77.23
2023-01-17T11:07:58.670Z,77.33
2023-01-17T11:08:57.641Z,77.33
2023-01-17T11:09:57.634Z,77.33
2023-01-17T11:10:57.617Z,77.12
2023-01-17T11:11:57.612Z,77.12
2023-01-17T11:12:57.612Z,77.02
2023-01-17T11:13:57.596Z,77.75
2023-01-17T11:14:57.586Z,76.61
2023-01-17T11:15:57.771Z,77.12
2023-01-17T11:16:57.572Z,77.51
2023-01-17T11:17:57.569Z,77.92
2023-01-17T11:18:57.552Z,77.82
2023-01-17T11:19:57.546Z,77.54
2023-01-17T11:20:57.537Z,76.81
2023-01-17T11:21:57.548Z,78.37
2023-01-17T11:22:57.524Z,77.95
2023-01-17T11:23:57.526Z,76.71
2023-01-17T11:24:57.507Z,77.68
2023-01-17T11:25:57.491Z,78.30
2023-01-17T11:26:57.488Z,78.58
2023-01-17T11:27:57.485Z,78.16
2023-01-17T11:28:57.460Z,79.55
2023-01-17T11:29:57.457Z,78.27
2023-01-17T11:30:57.485Z,77.58
2023-01-17T11:31:57.480Z,76.54
2023-01-17T11:32:57.441Z,77.26
2023-01-17T11:33:57.422Z,77.37
2023-01-17T11:34:57.409Z,77.47
2023-01-17T11:35:57.405Z,78.20
2023-01-17T11:36:57.397Z,77.68
2023-01-17T11:37:57.400Z,77.82
2023-01-17T11:38:57.384Z,77.20
2023-01-17T11:39:57.378Z,76.99
2023-01-17T11:40:57.361Z,77.61
2023-01-17T11:41:57.347Z,78.27
2023-01-17T11:42:57.358Z,78.06
2023-01-17T11:43:57.348Z,77.92
2023-01-17T11:44:57.332Z,78.86
2023-01-17T11:45:57.346Z,77.92
2023-01-17T11:46:57.309Z,77.30
2023-01-17T11:47:57.315Z,77.44
2023-01-17T11:48:57.303Z,78.34
2023-01-17T11:49:57.287Z,77.40
2023-01-17T11:50:57.278Z,78.23
2023-01-17T11:51:57.267Z,77.40
2023-01-17T11:52:57.287Z,77.40
2023-01-17T11:53:57.248Z,77.72
2023-01-17T11:54:57.240Z,77.92
2023-01-17T11:55:57.245Z,77.72
2023-01-17T11:56:57.226Z,78.30
2023-01-17T11:57:57.229Z,77.82
2023-01-17T11:58:57.208Z,78.34
2023-01-17T11:59:57.200Z,78.34
2023-01-17T12:00:57.249Z,78.34
2023-01-17T12:01:57.181Z,78.55
2023-01-17T12:02:57.181Z,77.89
2023-01-17T12:03:57.213Z,77.99
2023-01-17T12:04:57.171Z,77.78
2023-01-17T12:05:57.147Z,78.82
2023-01-17T12:06:58.453Z,78.92
2023-01-17T12:07:58.142Z,77.64
2023-01-17T12:08:57.117Z,77.23
2023-01-17T12:09:57.113Z,76.81
2023-01-17T12:10:57.100Z,77.33
2023-01-17T12:11:57.124Z,77.85
2023-01-17T12:12:57.117Z,76.95
2023-01-17T12:13:57.076Z,76.43
2023-01-17T12:14:57.066Z,76.81
2023-01-17T12:15:57.103Z,77.95
2023-01-17T12:16:57.056Z,75.88
2023-01-17T12:17:57.055Z,76.19
2023-01-17T12:18:57.033Z,77.02
2023-01-17T12:19:57.022Z,76.71
2023-01-17T12:20:57.015Z,76.92
2023-01-17T12:21:57.010Z,75.36
2023-01-17T12:22:57.010Z,75.67
2023-01-17T12:23:56.995Z,76.09
2023-01-17T12:24:56.978Z,75.78
2023-01-17T12:25:56.978Z,75.26
2023-01-17T12:26:56.963Z,75.26
2023-01-17T12:27:56.957Z,74.77
2023-01-17T12:28:56.944Z,75.19
2023-01-17T12:29:56.929Z,75.09
2023-01-17T12:30:56.969Z,75.50
2023-01-17T12:31:56.918Z,75.88
2023-01-17T12:32:56.919Z,74.98
2023-01-17T12:33:56.906Z,74.08
2023-01-17T12:34:56.896Z,74.77
2023-01-17T12:35:56.891Z,75.60
2023-01-17T12:36:56.878Z,75.81
2023-01-17T12:38:04.667Z,75.92
2023-01-17T12:38:58.880Z,76.40
2023-01-17T12:39:56.863Z,74.43
2023-01-17T12:40:56.842Z,75.57
2023-01-17T12:41:56.832Z,75.81
2023-01-17T12:42:56.838Z,76.19
2023-01-17T12:43:56.825Z,76.19
2023-01-17T12:44:56.808Z,75.98
2023-01-17T12:45:56.804Z,75.98
2023-01-17T12:46:56.831Z,75.74
2023-01-17T12:47:56.798Z,75.15
2023-01-17T12:48:56.779Z,75.23
2023-01-17T12:49:56.766Z,75.05
2023-01-17T12:50:56.783Z,75.46
2023-01-17T12:51:56.750Z,75.74